createdAt,value
2023-05-17T00:00:37.292Z,101363.13
2023-05-17T00:03:03.794Z,101354.72
2023-05-17T00:05:30.785Z,101354.44
2023-05-17T00:07:57.258Z,101358.50
2023-05-17T00:10:23.673Z,101363.34
2023-05-17T00:12:50.072Z,101363.16
2023-05-17T00:15:16.524Z,101352.97
2023-05-17T00:17:42.963Z,101363.28
2023-05-17T00:20:09.552Z,101352.69
2023-05-17T00:22:36.228Z,101353.50
2023-05-17T00:25:03.180Z,101358.09
2023-05-17T00:27:29.589Z,101359.06
2023-05-17T00:29:55.989Z,101359.44
2023-05-17T00:32:22.451Z,101356.63
2023-05-17T00:34:48.957Z,101359.72
2023-05-17T00:37:15.399Z,101359.22
2023-05-17T00:39:41.822Z,101363.84
2023-05-17T00:42:08.808Z,101358.44
2023-05-17T00:44:35.217Z,101363.34
2023-05-17T00:47:03.054Z,101357.47
2023-05-17T00:49:29.502Z,101365.03
2023-05-17T00:51:56.183Z,101364.47
2023-05-17T00:54:22.777Z,101368.56
2023-05-17T00:56:49.658Z,101374.25
2023-05-17T00:59:17.264Z,101372.53
2023-05-17T01:01:44.884Z,101365.97
2023-05-17T01:04:11.477Z,101372.28
2023-05-17T01:06:38.003Z,101365.09
2023-05-17T01:09:05.983Z,101366.38
2023-05-17T01:11:42.761Z,101361.53
2023-05-17T01:14:24.412Z,101362.69
2023-05-17T01:16:57.660Z,101362.97
2023-05-17T01:19:53.375Z,101379.97
2023-05-17T01:22:47.065Z,101368.03
2023-05-17T01:25:41.147Z,101377.66
2023-05-17T01:28:09.745Z,101377.84
2023-05-17T01:30:37.696Z,101374.75
2023-05-17T01:33:04.691Z,101374.13
2023-05-17T01:35:31.350Z,101380.94
2023-05-17T01:37:59.616Z,101381.13
2023-05-17T01:40:26.265Z,101381.75
2023-05-17T01:43:09.997Z,101377.53
2023-05-17T01:45:53.650Z,101394.56
2023-05-17T01:48:45.744Z,101395.66
2023-05-17T01:51:18.805Z,101393.88
2023-05-17T01:53:56.909Z,101399.28
2023-05-17T01:56:28.667Z,101398.84
2023-05-17T01:58:57.079Z,101401.47
2023-05-17T02:01:24.405Z,101398.69
2023-05-17T02:03:51.151Z,101392.06
2023-05-17T02:06:17.798Z,101396.16
2023-05-17T02:08:44.222Z,101387.56
2023-05-17T02:11:10.698Z,101389.25
2023-05-17T02:13:37.135Z,101392.06
2023-05-17T02:16:04.268Z,101382.88
2023-05-17T02:18:30.919Z,101391.75
2023-05-17T02:20:57.402Z,101395.66
2023-05-17T02:23:25.014Z,101393.06
2023-05-17T02:25:51.545Z,101382.72
2023-05-17T02:28:17.943Z,101389.22
2023-05-17T02:30:45.964Z,101389.41
2023-05-17T02:33:12.487Z,101380.25
2023-05-17T02:35:38.959Z,101371.84
2023-05-17T02:38:05.377Z,101377.94
2023-05-17T02:40:31.778Z,101371.41
2023-05-17T02:42:58.239Z,101383.16
2023-05-17T02:45:24.657Z,101381.75
2023-05-17T02:47:51.194Z,101380.81
2023-05-17T02:50:17.619Z,101382.44
2023-05-17T02:52:44.037Z,101387.19
2023-05-17T02:55:10.508Z,101372.00
2023-05-17T02:57:36.910Z,101379.25
2023-05-17T03:00:03.778Z,101388.19
2023-05-17T03:02:30.337Z,101393.28
2023-05-17T03:04:56.762Z,101385.31
2023-05-17T03:07:23.185Z,101392.47
2023-05-17T03:09:49.584Z,101395.50
2023-05-17T03:12:15.992Z,101397.22
2023-05-17T03:14:42.375Z,101401.81
2023-05-17T03:17:08.797Z,101408.94
2023-05-17T03:19:35.401Z,101402.00
2023-05-17T03:22:01.823Z,101405.41
2023-05-17T03:24:28.246Z,101406.09
2023-05-17T03:26:54.666Z,101398.06
2023-05-17T03:29:21.066Z,101401.91
2023-05-17T03:31:47.485Z,101406.13
2023-05-17T03:34:13.864Z,101412.66
2023-05-17T03:36:40.591Z,101410.59
2023-05-17T03:39:07.352Z,101415.44
2023-05-17T03:41:33.797Z,101417.31
2023-05-17T03:44:00.276Z,101407.47
2023-05-17T03:46:26.683Z,101427.84
2023-05-17T03:48:53.197Z,101424.06
2023-05-17T03:51:19.718Z,101436.06
2023-05-17T03:53:46.149Z,101438.88
2023-05-17T03:56:12.579Z,101431.47
2023-05-17T03:58:39.043Z,101430.78
2023-05-17T04:01:05.480Z,101442.31
2023-05-17T04:03:32.080Z,101442.72
2023-05-17T04:06:06.234Z,101449.09
2023-05-17T04:08:34.082Z,101450.19
2023-05-17T04:11:01.547Z,101458.94
2023-05-17T04:13:28.013Z,101453.41
2023-05-17T04:15:54.413Z,101465.44
2023-05-17T04:18:20.935Z,101470.72
2023-05-17T04:20:47.463Z,101461.81
2023-05-17T04:23:13.960Z,101463.72
2023-05-17T04:25:40.674Z,101467.03
2023-05-17T04:28:07.082Z,101473.41
2023-05-17T04:30:34.203Z,101466.53
2023-05-17T04:33:01.087Z,101466.13
2023-05-17T04:35:27.874Z,101479.41
2023-05-17T04:37:54.617Z,101476.94
2023-05-17T04:40:21.247Z,101476.00
2023-05-17T04:42:47.657Z,101487.56
2023-05-17T04:45:15.530Z,101484.25
2023-05-17T04:47:42.305Z,101496.19
2023-05-17T04:50:08.756Z,101499.28
2023-05-17T04:52:35.168Z,101510.59
2023-05-17T04:55:01.580Z,101533.63
2023-05-17T04:57:27.976Z,101520.13
2023-05-17T04:59:54.376Z,101520.63
2023-05-17T05:02:20.913Z,101527.44
2023-05-17T05:04:47.535Z,101521.22
2023-05-17T05:07:13.990Z,101523.38
2023-05-17T05:09:40.398Z,101527.31
2023-05-17T05:12:07.193Z,101527.72
2023-05-17T05:14:33.644Z,101531.72
2023-05-17T05:17:00.405Z,101538.22
2023-05-17T05:19:26.928Z,101542.81
2023-05-17T05:21:53.394Z,101556.75
2023-05-17T05:24:19.831Z,101557.97
2023-05-17T05:26:46.452Z,101552.66
2023-05-17T05:29:12.861Z,101554.84
2023-05-17T05:31:39.282Z,101557.25
2023-05-17T05:34:05.861Z,101560.97
2023-05-17T05:36:32.309Z,101558.63
2023-05-17T05:38:58.725Z,101555.13
2023-05-17T05:41:25.312Z,101566.47
2023-05-17T05:43:51.720Z,101559.03
2023-05-17T05:46:18.150Z,101573.56
2023-05-17T05:48:44.838Z,101584.44
2023-05-17T05:51:11.699Z,101598.72
2023-05-17T05:53:38.799Z,101587.47
2023-05-17T05:56:05.493Z,101590.84
2023-05-17T05:58:32.379Z,101590.06
2023-05-17T06:00:59.936Z,101588.56
2023-05-17T06:03:26.385Z,101592.88
2023-05-17T06:05:52.877Z,101596.22
2023-05-17T06:08:21.942Z,101585.38
2023-05-17T06:10:48.429Z,101597.09
2023-05-17T06:13:14.902Z,101606.97
2023-05-17T06:15:41.350Z,101575.25
2023-05-17T06:18:07.845Z,101613.56
2023-05-17T06:20:34.315Z,101624.78
2023-05-17T06:23:00.781Z,101617.66
2023-05-17T06:25:27.180Z,101632.31
2023-05-17T06:27:53.581Z,101623.28
2023-05-17T06:30:20.007Z,101664.00
2023-05-17T06:32:46.475Z,101636.81
2023-05-17T06:35:12.942Z,101619.25
2023-05-17T06:37:39.383Z,101631.25
2023-05-17T06:42:36.805Z,101631.78
2023-05-17T06:45:03.356Z,101626.31
2023-05-17T06:47:30.268Z,101628.84
2023-05-17T06:49:56.775Z,101637.09
2023-05-17T06:52:23.196Z,101627.00
2023-05-17T06:54:49.610Z,101619.63
2023-05-17T06:57:17.098Z,101628.69
2023-05-17T06:59:43.509Z,101624.78
2023-05-17T07:02:09.917Z,101630.75
2023-05-17T07:04:36.634Z,101624.78
2023-05-17T07:07:03.110Z,101629.16
2023-05-17T07:09:29.564Z,101621.72
2023-05-17T07:11:55.971Z,101636.22
2023-05-17T07:14:22.410Z,101624.59
2023-05-17T07:16:49.245Z,101624.06
2023-05-17T07:19:15.711Z,101639.66
2023-05-17T07:21:42.171Z,101638.84
2023-05-17T07:24:09.520Z,101626.94
2023-05-17T07:26:35.983Z,101639.44
2023-05-17T07:29:02.407Z,101641.00
2023-05-17T07:31:28.799Z,101649.63
2023-05-17T07:33:55.248Z,101657.47
2023-05-17T07:36:21.815Z,101654.66
2023-05-17T07:38:48.511Z,101650.34
2023-05-17T07:41:16.973Z,101656.94
2023-05-17T07:43:43.395Z,101655.97
2023-05-17T07:46:09.868Z,101684.44
2023-05-17T07:48:36.465Z,101669.66
2023-05-17T07:51:02.987Z,101679.47
2023-05-17T07:53:29.411Z,101675.50
2023-05-17T07:55:55.828Z,101683.50
2023-05-17T07:58:22.410Z,101683.31
2023-05-17T08:00:49.367Z,101668.56
2023-05-17T08:03:17.323Z,101669.09
2023-05-17T08:05:44.114Z,101685.84
2023-05-17T08:08:10.526Z,101689.94
2023-05-17T08:10:37.801Z,101694.63
2023-05-17T08:13:06.166Z,101696.97
2023-05-17T08:15:32.599Z,101707.22
2023-05-17T08:17:59.606Z,101701.88
2023-05-17T08:20:27.284Z,101708.16
2023-05-17T08:22:53.680Z,101695.16
2023-05-17T08:25:20.936Z,101686.88
2023-05-17T08:27:47.402Z,101702.00
2023-05-17T08:30:18.184Z,101703.47
2023-05-17T08:32:56.584Z,101717.09
2023-05-17T08:35:24.022Z,101710.09
2023-05-17T08:37:51.994Z,101716.91
2023-05-17T08:40:21.092Z,101714.66
2023-05-17T08:42:47.789Z,101718.06
2023-05-17T08:45:15.204Z,101710.59
2023-05-17T08:47:43.269Z,101729.56
2023-05-17T08:50:11.208Z,101723.50
2023-05-17T08:52:37.768Z,101717.31
2023-05-17T08:55:06.120Z,101727.97
2023-05-17T08:57:34.179Z,101719.81
2023-05-17T09:00:01.014Z,101715.91
2023-05-17T09:02:30.492Z,101717.25
2023-05-17T09:04:57.567Z,101734.19
2023-05-17T09:07:24.665Z,101722.56
2023-05-17T09:09:53.221Z,101718.81
2023-05-17T09:12:21.213Z,101711.44
2023-05-17T09:14:48.823Z,101709.28
2023-05-17T09:17:21.608Z,101690.78
2023-05-17T09:19:48.971Z,101710.56
2023-05-17T09:22:18.962Z,101694.53
2023-05-17T09:24:46.722Z,101704.09
2023-05-17T09:27:18.236Z,101712.28
2023-05-17T09:29:45.494Z,101716.94
2023-05-17T09:32:20.960Z,101710.41
2023-05-17T09:34:48.453Z,101702.31
2023-05-17T09:37:17.285Z,101718.78
2023-05-17T09:39:44.986Z,101701.91
2023-05-17T09:42:16.594Z,101703.31
2023-05-17T09:44:57.647Z,101708.88
2023-05-17T09:47:28.643Z,101707.31
2023-05-17T09:50:00.604Z,101702.88
2023-05-17T09:52:31.931Z,101718.38
2023-05-17T09:55:00.320Z,101711.72
2023-05-17T09:57:28.755Z,101716.84
2023-05-17T09:59:57.355Z,101728.94
2023-05-17T10:02:32.872Z,101715.25
2023-05-17T10:05:02.049Z,101722.53
2023-05-17T10:07:29.200Z,101720.25
2023-05-17T10:09:56.308Z,101733.00
2023-05-17T10:12:24.379Z,101726.97
2023-05-17T10:14:55.712Z,101713.97
2023-05-17T10:17:23.756Z,101717.88
2023-05-17T10:19:51.239Z,101724.97
2023-05-17T10:22:23.169Z,101720.19
2023-05-17T10:24:51.627Z,101718.47
2023-05-17T10:27:18.432Z,101722.47
2023-05-17T10:29:47.720Z,101717.69
2023-05-17T10:32:16.893Z,101735.38
2023-05-17T10:34:45.769Z,101722.44
2023-05-17T10:37:14.766Z,101713.31
2023-05-17T10:39:43.622Z,101722.81
2023-05-17T10:42:15.288Z,101716.75
2023-05-17T10:44:42.728Z,101727.81
2023-05-17T10:47:11.909Z,101735.59
2023-05-17T10:49:41.320Z,101725.94
2023-05-17T10:52:13.151Z,101734.19
2023-05-17T10:54:43.361Z,101724.06
2023-05-17T10:57:38.995Z,101734.63
2023-05-17T11:00:20.446Z,101754.41
2023-05-17T11:02:48.758Z,101734.03
2023-05-17T11:05:27.031Z,101736.16
2023-05-17T11:08:12.780Z,101742.13
2023-05-17T11:10:39.465Z,101735.25
2023-05-17T11:13:22.720Z,101726.19
2023-05-17T11:16:09.362Z,101725.59
2023-05-17T11:18:53.484Z,101726.88
2023-05-17T11:21:22.431Z,101742.41
2023-05-17T11:23:56.196Z,101743.31
2023-05-17T11:26:28.350Z,101747.53
2023-05-17T11:29:21.850Z,101728.75
2023-05-17T11:31:51.997Z,101737.88
2023-05-17T11:34:18.762Z,101732.28
2023-05-17T11:36:53.055Z,101737.81
2023-05-17T11:39:22.021Z,101736.09
2023-05-17T11:41:50.466Z,101731.66
2023-05-17T11:44:25.161Z,101732.72
2023-05-17T11:46:53.041Z,101721.03
2023-05-17T11:49:34.387Z,101735.00
2023-05-17T11:52:03.145Z,101729.50
2023-05-17T11:54:31.032Z,101750.41
2023-05-17T11:56:59.447Z,101732.34
2023-05-17T11:59:25.998Z,101735.81
2023-05-17T12:01:52.500Z,101716.53
2023-05-17T12:04:26.123Z,101734.91
2023-05-17T12:06:56.479Z,101725.19
2023-05-17T12:09:23.332Z,101721.03
2023-05-17T12:11:49.932Z,101720.59
2023-05-17T12:14:17.958Z,101728.88
2023-05-17T12:16:48.045Z,101735.63
2023-05-17T12:19:20.066Z,101740.19
2023-05-17T12:21:47.289Z,101732.06
2023-05-17T12:24:13.998Z,101732.81
2023-05-17T12:26:45.171Z,101737.44
2023-05-17T12:29:13.640Z,101729.41
2023-05-17T12:31:48.146Z,101728.69
2023-05-17T12:34:17.046Z,101724.16
2023-05-17T12:36:44.117Z,101713.63
2023-05-17T12:39:14.501Z,101741.13
2023-05-17T12:41:42.010Z,101733.44
2023-05-17T12:44:15.105Z,101732.19
2023-05-17T12:46:43.216Z,101717.75
2023-05-17T12:49:11.811Z,101738.97
2023-05-17T12:51:43.399Z,101729.75
2023-05-17T12:54:11.099Z,101729.09
2023-05-17T12:56:37.733Z,101727.09
2023-05-17T12:59:04.081Z,101729.63
2023-05-17T13:01:35.651Z,101726.69
2023-05-17T13:04:03.733Z,101742.50
2023-05-17T13:07:02.982Z,101728.19
2023-05-17T13:09:32.062Z,101735.06
2023-05-17T13:12:01.329Z,101727.06
2023-05-17T13:14:47.437Z,101747.47
2023-05-17T13:17:22.292Z,101735.50
2023-05-17T13:19:48.776Z,101707.38
2023-05-17T13:22:15.912Z,101712.66
2023-05-17T13:24:44.623Z,101733.75
2023-05-17T13:27:11.846Z,101719.19
2023-05-17T13:29:40.815Z,101731.59
2023-05-17T13:32:08.317Z,101718.00
2023-05-17T13:34:35.179Z,101704.81
2023-05-17T13:37:01.884Z,101718.31
2023-05-17T13:39:28.297Z,101713.97
2023-05-17T13:41:54.809Z,101721.63
2023-05-17T13:44:21.305Z,101741.66
2023-05-17T13:46:47.853Z,101746.44
2023-05-17T13:49:14.285Z,101728.94
2023-05-17T13:51:40.804Z,101736.13
2023-05-17T13:54:07.324Z,101741.72
2023-05-17T13:56:34.215Z,101735.78
2023-05-17T13:59:00.859Z,101719.28
2023-05-17T14:01:27.329Z,101724.34
2023-05-17T14:03:55.277Z,101731.94
2023-05-17T14:06:21.946Z,101734.53
2023-05-17T14:08:48.662Z,101750.75
2023-05-17T14:11:15.169Z,101744.41
2023-05-17T14:13:42.446Z,101736.31
2023-05-17T14:16:08.844Z,101741.66
2023-05-17T14:18:35.755Z,101723.81
2023-05-17T14:21:03.412Z,101733.75
2023-05-17T14:23:29.874Z,101740.00
2023-05-17T14:25:57.665Z,101731.22
2023-05-17T14:28:24.376Z,101742.69
2023-05-17T14:30:51.805Z,101761.09
2023-05-17T14:33:18.437Z,101744.41
2023-05-17T14:35:44.993Z,101730.91
2023-05-17T14:38:11.488Z,101739.09
2023-05-17T14:40:37.923Z,101759.44
2023-05-17T14:43:04.376Z,101740.25
2023-05-17T14:45:30.850Z,101746.91
2023-05-17T14:47:57.367Z,101746.22
2023-05-17T14:50:23.830Z,101753.38
2023-05-17T14:52:50.322Z,101771.16
2023-05-17T14:55:16.900Z,101755.91
2023-05-17T14:57:43.792Z,101763.09
2023-05-17T15:00:11.242Z,101778.94
2023-05-17T15:02:38.200Z,101778.50
2023-05-17T15:05:05.410Z,101776.88
2023-05-17T15:07:33.184Z,101765.84
2023-05-17T15:09:59.711Z,101767.97
2023-05-17T15:12:26.109Z,101768.47
2023-05-17T15:14:52.531Z,101762.81
2023-05-17T15:17:18.964Z,101784.53
2023-05-17T15:19:45.505Z,101763.91
2023-05-17T15:22:11.972Z,101769.56
2023-05-17T15:24:39.569Z,101789.72
2023-05-17T15:27:06.480Z,101781.03
2023-05-17T15:29:32.993Z,101768.91
2023-05-17T15:31:59.436Z,101771.38
2023-05-17T15:34:29.218Z,101800.97
2023-05-17T15:36:56.460Z,101796.06
2023-05-17T15:39:22.872Z,101798.13
2023-05-17T15:41:49.419Z,101785.41
2023-05-17T15:44:16.284Z,101794.09
2023-05-17T15:46:42.771Z,101789.91
2023-05-17T15:49:09.234Z,101775.53
2023-05-17T15:51:36.010Z,101805.75
2023-05-17T15:54:02.464Z,101790.16
2023-05-17T15:56:28.907Z,101790.59
2023-05-17T15:58:55.465Z,101791.22
2023-05-17T16:01:21.893Z,101796.88
2023-05-17T16:03:48.380Z,101791.47
2023-05-17T16:06:14.902Z,101788.97
2023-05-17T16:08:41.982Z,101807.06
2023-05-17T16:11:09.872Z,101798.69
2023-05-17T16:13:36.311Z,101786.47
2023-05-17T16:16:02.907Z,101776.81
2023-05-17T16:18:31.018Z,101787.25
2023-05-17T16:21:03.913Z,101791.41
2023-05-17T16:23:30.341Z,101786.03
2023-05-17T16:25:56.833Z,101786.66
2023-05-17T16:28:23.559Z,101816.63
2023-05-17T16:30:51.679Z,101801.25
2023-05-17T16:33:20.386Z,101804.78
2023-05-17T16:35:48.757Z,101811.16
2023-05-17T16:38:16.109Z,101806.38
2023-05-17T16:40:42.502Z,101819.56
2023-05-17T16:43:09.281Z,101826.97
2023-05-17T16:45:35.759Z,101828.25
2023-05-17T16:48:02.225Z,101820.25
2023-05-17T16:50:28.842Z,101810.41
2023-05-17T16:52:55.576Z,101836.69
2023-05-17T16:55:21.997Z,101820.06
2023-05-17T16:57:48.485Z,101824.59
2023-05-17T17:00:15.359Z,101831.13
2023-05-17T17:02:44.944Z,101837.59
2023-05-17T17:05:11.663Z,101833.69
2023-05-17T17:07:38.130Z,101829.69
2023-05-17T17:10:04.966Z,101829.97
2023-05-17T17:12:31.567Z,101832.91
2023-05-17T17:14:58.251Z,101836.88
2023-05-17T17:17:24.676Z,101847.88
2023-05-17T17:19:51.223Z,101845.09
2023-05-17T17:22:18.054Z,101837.34
2023-05-17T17:24:44.479Z,101838.16
2023-05-17T17:27:10.989Z,101845.16
2023-05-17T17:29:37.458Z,101834.91
2023-05-17T17:32:04.831Z,101838.34
2023-05-17T17:34:31.358Z,101842.97
2023-05-17T17:36:57.837Z,101836.78
2023-05-17T17:39:24.245Z,101839.47
2023-05-17T17:41:51.134Z,101841.03
2023-05-17T17:44:17.546Z,101855.59
2023-05-17T17:46:44.031Z,101846.56
2023-05-17T17:49:10.639Z,101850.72
2023-05-17T17:51:37.073Z,101853.78
2023-05-17T17:54:05.444Z,101858.88
2023-05-17T17:56:32.791Z,101856.00
2023-05-17T17:58:59.785Z,101862.03
2023-05-17T18:01:27.233Z,101865.13
2023-05-17T18:03:53.763Z,101854.34
2023-05-17T18:06:20.158Z,101866.28
2023-05-17T18:08:46.638Z,101869.06
2023-05-17T18:11:13.351Z,101871.66
2023-05-17T18:13:39.787Z,101863.75
2023-05-17T18:16:06.665Z,101878.88
2023-05-17T18:18:33.522Z,101872.16
2023-05-17T18:21:00.033Z,101875.09
2023-05-17T18:23:26.531Z,101884.72
2023-05-17T18:25:52.966Z,101885.56
2023-05-17T18:28:26.848Z,101887.03
2023-05-17T18:31:04.766Z,101901.41
2023-05-17T18:33:31.615Z,101906.28
2023-05-17T18:35:58.141Z,101908.00
2023-05-17T18:38:24.576Z,101909.03
2023-05-17T18:40:51.202Z,101914.78
2023-05-17T18:43:17.631Z,101916.44
2023-05-17T18:45:44.038Z,101915.59
2023-05-17T18:48:10.594Z,101921.63
2023-05-17T18:50:37.090Z,101920.44
2023-05-17T18:53:03.512Z,101936.25
2023-05-17T18:55:29.947Z,101937.47
2023-05-17T18:57:56.418Z,101927.50
2023-05-17T19:00:22.987Z,101939.94
2023-05-17T19:02:49.433Z,101940.09
2023-05-17T19:05:15.902Z,101948.06
2023-05-17T19:07:42.379Z,101956.75
2023-05-17T19:10:09.246Z,101953.22
2023-05-17T19:12:36.739Z,101965.63
2023-05-17T19:15:04.206Z,101966.63
2023-05-17T19:17:30.819Z,101972.13
2023-05-17T19:19:57.389Z,101969.50
2023-05-17T19:22:23.800Z,101975.47
2023-05-17T19:24:50.724Z,101972.22
2023-05-17T19:27:19.592Z,101977.63
2023-05-17T19:29:49.143Z,101979.91
2023-05-17T19:32:15.580Z,101988.72
2023-05-17T19:34:42.038Z,101994.91
2023-05-17T19:37:08.489Z,101999.00
2023-05-17T19:39:35.076Z,102001.34
2023-05-17T19:42:02.682Z,101995.97
2023-05-17T19:44:29.546Z,102004.66
2023-05-17T19:46:56.295Z,101999.72
2023-05-17T19:49:22.817Z,102004.25
2023-05-17T19:51:49.373Z,102008.06
2023-05-17T19:54:15.961Z,102016.63
2023-05-17T19:56:42.424Z,102023.19
2023-05-17T19:59:09.672Z,102025.00
2023-05-17T20:01:36.199Z,102031.78
2023-05-17T20:04:02.779Z,102026.09
2023-05-17T20:06:29.242Z,102029.88
2023-05-17T20:08:55.811Z,102035.78
2023-05-17T20:11:22.429Z,102036.28
2023-05-17T20:13:49.235Z,102039.22
2023-05-17T20:16:15.684Z,102043.38
2023-05-17T20:18:43.580Z,102047.81
2023-05-17T20:21:12.443Z,102051.59
2023-05-17T20:23:39.103Z,102047.22
2023-05-17T20:26:05.677Z,102049.69
2023-05-17T20:28:32.099Z,102056.47
2023-05-17T20:30:58.896Z,102055.75
2023-05-17T20:33:26.742Z,102052.31
2023-05-17T20:35:53.947Z,102059.53
2023-05-17T20:38:21.537Z,102063.25
2023-05-17T20:40:48.018Z,102057.00
2023-05-17T20:43:14.593Z,102061.72
2023-05-17T20:45:41.098Z,102066.59
2023-05-17T20:48:07.629Z,102072.38
2023-05-17T20:50:34.172Z,102069.97
2023-05-17T20:53:01.155Z,102075.22
2023-05-17T20:55:27.608Z,102080.03
2023-05-17T20:57:54.041Z,102078.03
2023-05-17T21:00:21.129Z,102081.09
2023-05-17T21:02:47.697Z,102087.16
2023-05-17T21:05:14.179Z,102085.19
2023-05-17T21:07:40.614Z,102084.56
2023-05-17T21:10:08.270Z,102084.72
2023-05-17T21:12:35.546Z,102077.75
2023-05-17T21:15:15.984Z,102083.19
2023-05-17T21:17:43.696Z,102083.16
2023-05-17T21:20:10.767Z,102079.44
2023-05-17T21:22:37.645Z,102083.88
2023-05-17T21:25:04.725Z,102087.06
2023-05-17T21:27:31.226Z,102084.69
2023-05-17T21:29:57.650Z,102090.00
2023-05-17T21:32:24.124Z,102089.56
2023-05-17T21:34:52.916Z,102088.81
2023-05-17T21:37:20.839Z,102092.28
2023-05-17T21:39:47.243Z,102094.63
2023-05-17T21:42:13.720Z,102090.88
2023-05-17T21:44:40.113Z,102098.75
2023-05-17T21:47:06.673Z,102091.72
2023-05-17T21:49:33.140Z,102093.53
2023-05-17T21:51:59.540Z,102086.84
2023-05-17T21:54:25.936Z,102082.13
2023-05-17T21:56:52.532Z,102084.84
2023-05-17T21:59:18.938Z,102087.47
2023-05-17T22:01:45.652Z,102096.41
2023-05-17T22:04:12.184Z,102097.44
2023-05-17T22:06:38.605Z,102088.16
2023-05-17T22:09:06.931Z,102092.59
2023-05-17T22:11:33.962Z,102095.19
2023-05-17T22:14:00.387Z,102094.63
2023-05-17T22:16:26.886Z,102097.31
2023-05-17T22:18:53.360Z,102091.28
2023-05-17T22:21:19.923Z,102096.00
2023-05-17T22:23:46.471Z,102094.28
2023-05-17T22:26:12.894Z,102098.22
2023-05-17T22:28:39.296Z,102100.13
2023-05-17T22:31:07.550Z,102094.28
2023-05-17T22:33:35.619Z,102098.22
2023-05-17T22:36:02.935Z,102099.41
2023-05-17T22:38:29.419Z,102100.09
2023-05-17T22:40:56.229Z,102100.97
2023-05-17T22:43:22.663Z,102107.59
2023-05-17T22:45:50.002Z,102113.28
2023-05-17T22:48:16.633Z,102113.19
2023-05-17T22:50:43.136Z,102112.22
2023-05-17T22:53:11.299Z,102112.94
2023-05-17T22:55:37.746Z,102121.00
2023-05-17T22:58:04.159Z,102124.47
2023-05-17T23:00:30.549Z,102116.63
2023-05-17T23:02:57.031Z,102128.03
2023-05-17T23:05:23.541Z,102122.59
2023-05-17T23:07:50.190Z,102130.06
2023-05-17T23:10:16.620Z,102128.00
2023-05-17T23:12:43.133Z,102123.75
2023-05-17T23:15:10.569Z,102129.41
2023-05-17T23:17:38.902Z,102132.94
2023-05-17T23:20:09.760Z,102123.88
2023-05-17T23:22:37.303Z,102132.41
2023-05-17T23:25:03.989Z,102128.63
2023-05-17T23:27:30.432Z,102125.03
2023-05-17T23:29:57.187Z,102136.66
2023-05-17T23:32:24.112Z,102136.31
2023-05-17T23:34:54.060Z,102132.13
2023-05-17T23:37:20.473Z,102133.84
2023-05-17T23:39:46.921Z,102132.72
2023-05-17T23:42:13.354Z,102129.75
2023-05-17T23:44:42.784Z,102135.72
2023-05-17T23:47:12.382Z,102142.47
2023-05-17T23:49:39.051Z,102136.63
2023-05-17T23:52:11.011Z,102136.63
2023-05-17T23:54:38.852Z,102139.91
2023-05-17T23:57:06.308Z,102147.47
2023-05-17T23:59:33.158Z,102138.75
